GCTS/TFS METAR and TAF weather

Enter ICAO airport designator
Station Type Date Time Source
GCTS METAR 2022/08/16 18:30 UTC NOAA

GCTS 161830Z 08016KT 9999 FEW040 27/18 Q1014 WS R07 NOSIG


Station Type Date Time Source
GCTS Decoded METAR 2022/08/16 18:30 UTC NOAA

Tenerife Sur, Spain (GCTS) 28-03N 016-34W 77M
Aug 16, 2022 - 02:30 PM EDT / 2022.08.16 1830 UTC
Wind: from the E (080 degrees) at 18 MPH (16 KT):0
Visibility: greater than 7 mile(s):0
Sky conditions: mostly clear
Temperature: 80 F (27 C)
Dew Point: 64 F (18 C)
Relative Humidity: 57%
Pressure (altimeter): 29.94 in. Hg (1014 hPa)
ob: GCTS 161830Z 08016KT 9999 FEW040 27/18 Q1014 WS R07 NOSIG
cycle: 18

Station Type Date Time Source
GCTS TAF 2022/08/16 15:28 UTC NOAA

TAF GCTS 161400Z 1615/1715 09018KT 9999 FEW025 TX28/1714Z TN20/1706Z PROB40
TEMPO 1615/1618 09016G26KT
BECMG 1619/1621 03009KT
BECMG 1707/1709 08019KT PROB40
TEMPO 1712/1715 08020G32KT

Example: see airport list